sensor_id;sensor_type;location;lat;lon;timestamp;P1;durP1;ratioP1;P2;durP2;ratioP2
40611;SDS011;26317;44.894;20.286;2022-07-10T00:01:04;4.07;;;2.25;;
40611;SDS011;26317;44.894;20.286;2022-07-10T00:03:35;5.80;;;2.20;;
40611;SDS011;26317;44.894;20.286;2022-07-10T00:06:27;4.25;;;2.45;;
40611;SDS011;26317;44.894;20.286;2022-07-10T00:08:58;3.25;;;1.95;;
40611;SDS011;26317;44.894;20.286;2022-07-10T00:11:33;5.28;;;2.92;;
40611;SDS011;26317;44.894;20.286;2022-07-10T00:14:20;5.30;;;2.75;;
40611;SDS011;26317;44.894;20.286;2022-07-10T00:17:05;5.78;;;2.20;;
40611;SDS011;26317;44.894;20.286;2022-07-10T00:19:38;6.65;;;2.65;;
40611;SDS011;26317;44.894;20.286;2022-07-10T00:22:16;6.63;;;2.47;;
40611;SDS011;26317;44.894;20.286;2022-07-10T00:24:49;4.05;;;2.38;;
40611;SDS011;26317;44.894;20.286;2022-07-10T00:27:30;7.90;;;2.35;;
40611;SDS011;26317;44.894;20.286;2022-07-10T00:30:11;4.55;;;2.63;;
40611;SDS011;26317;44.894;20.286;2022-07-10T00:32:51;6.47;;;2.70;;
40611;SDS011;26317;44.894;20.286;2022-07-10T00:35:34;3.42;;;2.40;;
40611;SDS011;26317;44.894;20.286;2022-07-10T00:38:13;6.18;;;2.90;;
40611;SDS011;26317;44.894;20.286;2022-07-10T00:40:46;8.38;;;2.65;;
40611;SDS011;26317;44.894;20.286;2022-07-10T00:43:29;3.65;;;2.53;;
40611;SDS011;26317;44.894;20.286;2022-07-10T00:46:30;5.82;;;2.60;;
40611;SDS011;26317;44.894;20.286;2022-07-10T00:49:04;4.13;;;2.30;;
40611;SDS011;26317;44.894;20.286;2022-07-10T00:51:37;7.38;;;2.80;;
40611;SDS011;26317;44.894;20.286;2022-07-10T00:54:45;5.47;;;2.97;;
40611;SDS011;26317;44.894;20.286;2022-07-10T00:57:18;6.03;;;2.90;;
40611;SDS011;26317;44.894;20.286;2022-07-10T01:00:06;9.18;;;3.38;;
40611;SDS011;26317;44.894;20.286;2022-07-10T01:02:47;7.05;;;3.60;;
40611;SDS011;26317;44.894;20.286;2022-07-10T01:05:25;8.40;;;2.85;;
40611;SDS011;26317;44.894;20.286;2022-07-10T01:08:04;9.40;;;3.72;;
40611;SDS011;26317;44.894;20.286;2022-07-10T01:10:47;5.50;;;3.45;;
40611;SDS011;26317;44.894;20.286;2022-07-10T01:13:21;6.95;;;3.63;;
40611;SDS011;26317;44.894;20.286;2022-07-10T01:16:01;6.10;;;3.40;;
40611;SDS011;26317;44.894;20.286;2022-07-10T01:18:36;4.50;;;3.13;;
40611;SDS011;26317;44.894;20.286;2022-07-10T01:21:18;4.03;;;3.08;;
40611;SDS011;26317;44.894;20.286;2022-07-10T01:23:59;6.35;;;3.20;;
40611;SDS011;26317;44.894;20.286;2022-07-10T01:26:45;6.70;;;3.70;;
40611;SDS011;26317;44.894;20.286;2022-07-10T01:29:18;5.65;;;2.63;;
40611;SDS011;26317;44.894;20.286;2022-07-10T01:31:59;5.60;;;3.22;;
40611;SDS011;26317;44.894;20.286;2022-07-10T01:34:34;4.88;;;3.63;;
40611;SDS011;26317;44.894;20.286;2022-07-10T01:37:24;6.15;;;3.67;;
40611;SDS011;26317;44.894;20.286;2022-07-10T01:39:58;6.10;;;4.68;;
40611;SDS011;26317;44.894;20.286;2022-07-10T01:42:48;8.03;;;4.80;;
40611;SDS011;26317;44.894;20.286;2022-07-10T01:45:21;6.03;;;4.97;;
40611;SDS011;26317;44.894;20.286;2022-07-10T01:48:00;7.72;;;4.90;;
40611;SDS011;26317;44.894;20.286;2022-07-10T01:50:33;6.70;;;4.65;;
40611;SDS011;26317;44.894;20.286;2022-07-10T01:53:07;8.05;;;3.92;;
40611;SDS011;26317;44.894;20.286;2022-07-10T01:55:38;5.43;;;3.65;;
40611;SDS011;26317;44.894;20.286;2022-07-10T01:58:11;5.82;;;3.78;;
40611;SDS011;26317;44.894;20.286;2022-07-10T02:00:46;3.85;;;3.25;;
40611;SDS011;26317;44.894;20.286;2022-07-10T02:03:20;3.45;;;2.85;;
40611;SDS011;26317;44.894;20.286;2022-07-10T02:06:06;5.68;;;3.30;;
40611;SDS011;26317;44.894;20.286;2022-07-10T02:11:27;4.78;;;3.15;;
40611;SDS011;26317;44.894;20.286;2022-07-10T02:14:05;5.35;;;3.13;;
40611;SDS011;26317;44.894;20.286;2022-07-10T02:16:41;6.13;;;3.13;;
40611;SDS011;26317;44.894;20.286;2022-07-10T02:19:22;5.75;;;2.75;;
40611;SDS011;26317;44.894;20.286;2022-07-10T02:22:04;3.10;;;2.60;;
40611;SDS011;26317;44.894;20.286;2022-07-10T02:24:37;4.68;;;2.90;;
40611;SDS011;26317;44.894;20.286;2022-07-10T02:27:09;5.78;;;3.55;;
40611;SDS011;26317;44.894;20.286;2022-07-10T02:29:45;4.53;;;3.35;;
40611;SDS011;26317;44.894;20.286;2022-07-10T02:32:18;3.05;;;2.75;;
40611;SDS011;26317;44.894;20.286;2022-07-10T02:34:54;3.70;;;2.85;;
40611;SDS011;26317;44.894;20.286;2022-07-10T02:37:24;5.30;;;3.45;;
40611;SDS011;26317;44.894;20.286;2022-07-10T02:40:16;6.18;;;3.17;;
40611;SDS011;26317;44.894;20.286;2022-07-10T02:42:48;3.47;;;3.17;;
40611;SDS011;26317;44.894;20.286;2022-07-10T02:45:25;6.38;;;2.88;;
40611;SDS011;26317;44.894;20.286;2022-07-10T02:47:59;8.77;;;4.03;;
40611;SDS011;26317;44.894;20.286;2022-07-10T02:50:42;6.80;;;3.13;;
40611;SDS011;26317;44.894;20.286;2022-07-10T02:53:13;5.10;;;3.67;;
40611;SDS011;26317;44.894;20.286;2022-07-10T02:55:49;3.95;;;3.45;;
40611;SDS011;26317;44.894;20.286;2022-07-10T02:58:21;8.70;;;3.58;;
40611;SDS011;26317;44.894;20.286;2022-07-10T03:00:58;6.30;;;3.65;;
40611;SDS011;26317;44.894;20.286;2022-07-10T03:03:32;6.03;;;3.42;;
40611;SDS011;26317;44.894;20.286;2022-07-10T03:06:06;4.57;;;3.10;;
40611;SDS011;26317;44.894;20.286;2022-07-10T03:08:39;7.97;;;3.53;;
40611;SDS011;26317;44.894;20.286;2022-07-10T03:11:28;4.68;;;3.60;;
40611;SDS011;26317;44.894;20.286;2022-07-10T03:14:02;6.03;;;3.00;;
40611;SDS011;26317;44.894;20.286;2022-07-10T03:16:33;5.95;;;3.47;;
40611;SDS011;26317;44.894;20.286;2022-07-10T03:19:14;6.70;;;3.10;;
40611;SDS011;26317;44.894;20.286;2022-07-10T03:21:48;5.30;;;3.05;;
40611;SDS011;26317;44.894;20.286;2022-07-10T03:24:21;4.82;;;3.28;;
40611;SDS011;26317;44.894;20.286;2022-07-10T03:27:12;4.10;;;3.03;;
40611;SDS011;26317;44.894;20.286;2022-07-10T03:29:45;5.53;;;3.08;;
40611;SDS011;26317;44.894;20.286;2022-07-10T03:32:17;7.20;;;3.67;;
40611;SDS011;26317;44.894;20.286;2022-07-10T03:35:08;6.20;;;3.40;;
40611;SDS011;26317;44.894;20.286;2022-07-10T03:37:49;3.55;;;2.95;;
40611;SDS011;26317;44.894;20.286;2022-07-10T03:40:25;7.13;;;3.20;;
40611;SDS011;26317;44.894;20.286;2022-07-10T03:43:01;6.13;;;3.40;;
40611;SDS011;26317;44.894;20.286;2022-07-10T03:45:34;5.85;;;3.25;;
40611;SDS011;26317;44.894;20.286;2022-07-10T03:48:08;7.57;;;3.47;;
40611;SDS011;26317;44.894;20.286;2022-07-10T03:50:49;8.85;;;3.50;;
40611;SDS011;26317;44.894;20.286;2022-07-10T03:53:22;6.25;;;2.72;;
40611;SDS011;26317;44.894;20.286;2022-07-10T03:55:55;3.53;;;3.10;;
40611;SDS011;26317;44.894;20.286;2022-07-10T03:58:41;7.95;;;2.97;;
40611;SDS011;26317;44.894;20.286;2022-07-10T04:01:09;6.30;;;3.30;;
40611;SDS011;26317;44.894;20.286;2022-07-10T04:03:47;4.88;;;3.13;;
40611;SDS011;26317;44.894;20.286;2022-07-10T04:06:30;7.07;;;3.88;;
40611;SDS011;26317;44.894;20.286;2022-07-10T04:09:05;4.45;;;3.20;;
40611;SDS011;26317;44.894;20.286;2022-07-10T04:11:37;5.50;;;3.30;;
40611;SDS011;26317;44.894;20.286;2022-07-10T04:14:20;5.43;;;3.42;;
40611;SDS011;26317;44.894;20.286;2022-07-10T04:16:49;6.13;;;3.85;;
40611;SDS011;26317;44.894;20.286;2022-07-10T04:19:24;4.45;;;3.20;;
40611;SDS011;26317;44.894;20.286;2022-07-10T04:21:57;3.78;;;3.38;;
40611;SDS011;26317;44.894;20.286;2022-07-10T04:24:38;4.18;;;2.83;;
40611;SDS011;26317;44.894;20.286;2022-07-10T04:27:12;4.57;;;3.30;;
40611;SDS011;26317;44.894;20.286;2022-07-10T04:29:56;3.50;;;3.20;;
40611;SDS011;26317;44.894;20.286;2022-07-10T04:32:27;5.75;;;3.60;;
40611;SDS011;26317;44.894;20.286;2022-07-10T04:35:10;7.40;;;3.80;;
40611;SDS011;26317;44.894;20.286;2022-07-10T04:37:49;5.63;;;3.80;;
40611;SDS011;26317;44.894;20.286;2022-07-10T04:40:24;9.55;;;3.95;;
40611;SDS011;26317;44.894;20.286;2022-07-10T04:42:56;5.13;;;3.55;;
40611;SDS011;26317;44.894;20.286;2022-07-10T04:45:48;4.70;;;3.30;;
40611;SDS011;26317;44.894;20.286;2022-07-10T04:48:21;4.97;;;3.45;;
40611;SDS011;26317;44.894;20.286;2022-07-10T04:50:52;5.38;;;3.05;;
40611;SDS011;26317;44.894;20.286;2022-07-10T04:53:25;8.15;;;3.85;;
40611;SDS011;26317;44.894;20.286;2022-07-10T04:56:02;4.45;;;3.40;;
40611;SDS011;26317;44.894;20.286;2022-07-10T04:58:39;3.83;;;3.30;;
40611;SDS011;26317;44.894;20.286;2022-07-10T05:01:22;4.65;;;3.40;;
40611;SDS011;26317;44.894;20.286;2022-07-10T05:04:00;5.88;;;3.60;;
40611;SDS011;26317;44.894;20.286;2022-07-10T05:06:31;5.00;;;3.85;;
40611;SDS011;26317;44.894;20.286;2022-07-10T05:09:02;16.73;;;4.15;;
40611;SDS011;26317;44.894;20.286;2022-07-10T05:11:37;6.85;;;3.15;;
40611;SDS011;26317;44.894;20.286;2022-07-10T05:14:13;6.40;;;3.55;;
40611;SDS011;26317;44.894;20.286;2022-07-10T05:16:56;4.00;;;3.37;;
40611;SDS011;26317;44.894;20.286;2022-07-10T05:19:35;4.97;;;3.60;;
40611;SDS011;26317;44.894;20.286;2022-07-10T05:22:13;5.00;;;3.28;;
40611;SDS011;26317;44.894;20.286;2022-07-10T05:24:49;7.72;;;3.05;;
40611;SDS011;26317;44.894;20.286;2022-07-10T05:27:19;3.40;;;3.00;;
40611;SDS011;26317;44.894;20.286;2022-07-10T05:29:56;3.10;;;2.70;;
40611;SDS011;26317;44.894;20.286;2022-07-10T05:32:33;6.53;;;3.05;;
40611;SDS011;26317;44.894;20.286;2022-07-10T05:35:11;5.82;;;3.40;;
40611;SDS011;26317;44.894;20.286;2022-07-10T05:37:46;8.27;;;4.18;;
40611;SDS011;26317;44.894;20.286;2022-07-10T05:40:19;3.65;;;3.15;;
40611;SDS011;26317;44.894;20.286;2022-07-10T05:42:50;5.63;;;2.58;;
40611;SDS011;26317;44.894;20.286;2022-07-10T05:45:30;4.10;;;2.63;;
40611;SDS011;26317;44.894;20.286;2022-07-10T05:48:13;4.50;;;2.75;;
40611;SDS011;26317;44.894;20.286;2022-07-10T05:50:43;5.65;;;3.13;;
40611;SDS011;26317;44.894;20.286;2022-07-10T05:53:24;4.22;;;2.58;;
40611;SDS011;26317;44.894;20.286;2022-07-10T05:55:59;4.65;;;2.75;;
40611;SDS011;26317;44.894;20.286;2022-07-10T05:58:33;7.00;;;3.17;;
40611;SDS011;26317;44.894;20.286;2022-07-10T06:01:08;4.93;;;3.08;;
40611;SDS011;26317;44.894;20.286;2022-07-10T06:03:44;3.92;;;2.50;;
40611;SDS011;26317;44.894;20.286;2022-07-10T06:06:16;6.38;;;3.50;;
40611;SDS011;26317;44.894;20.286;2022-07-10T06:08:55;4.78;;;3.10;;
40611;SDS011;26317;44.894;20.286;2022-07-10T06:11:33;3.60;;;3.03;;
40611;SDS011;26317;44.894;20.286;2022-07-10T06:14:09;4.93;;;2.33;;
40611;SDS011;26317;44.894;20.286;2022-07-10T06:16:44;2.47;;;1.90;;
40611;SDS011;26317;44.894;20.286;2022-07-10T06:19:24;5.57;;;2.47;;
40611;SDS011;26317;44.894;20.286;2022-07-10T06:21:54;6.32;;;2.42;;
40611;SDS011;26317;44.894;20.286;2022-07-10T06:24:39;4.38;;;2.30;;
40611;SDS011;26317;44.894;20.286;2022-07-10T06:27:15;3.75;;;2.10;;
40611;SDS011;26317;44.894;20.286;2022-07-10T06:29:51;4.10;;;2.55;;
40611;SDS011;26317;44.894;20.286;2022-07-10T06:32:22;4.00;;;2.47;;
40611;SDS011;26317;44.894;20.286;2022-07-10T06:35:16;2.88;;;2.05;;
40611;SDS011;26317;44.894;20.286;2022-07-10T06:38:08;4.20;;;2.10;;
40611;SDS011;26317;44.894;20.286;2022-07-10T06:40:44;3.80;;;2.08;;
40611;SDS011;26317;44.894;20.286;2022-07-10T06:43:19;6.88;;;2.75;;
40611;SDS011;26317;44.894;20.286;2022-07-10T06:45:57;4.43;;;2.20;;
40611;SDS011;26317;44.894;20.286;2022-07-10T06:48:31;3.75;;;2.38;;
40611;SDS011;26317;44.894;20.286;2022-07-10T06:51:16;6.55;;;2.30;;
40611;SDS011;26317;44.894;20.286;2022-07-10T06:53:56;2.00;;;1.80;;
40611;SDS011;26317;44.894;20.286;2022-07-10T06:59:23;4.78;;;2.20;;
40611;SDS011;26317;44.894;20.286;2022-07-10T07:04:30;4.00;;;2.00;;
40611;SDS011;26317;44.894;20.286;2022-07-10T07:07:12;4.15;;;2.15;;
40611;SDS011;26317;44.894;20.286;2022-07-10T07:09:45;4.13;;;2.30;;
40611;SDS011;26317;44.894;20.286;2022-07-10T07:12:15;6.85;;;2.50;;
40611;SDS011;26317;44.894;20.286;2022-07-10T07:14:58;2.92;;;2.30;;
40611;SDS011;26317;44.894;20.286;2022-07-10T07:17:40;4.22;;;2.35;;
40611;SDS011;26317;44.894;20.286;2022-07-10T07:20:34;4.97;;;2.15;;
40611;SDS011;26317;44.894;20.286;2022-07-10T07:23:23;4.28;;;2.65;;
40611;SDS011;26317;44.894;20.286;2022-07-10T07:25:57;5.93;;;1.90;;
40611;SDS011;26317;44.894;20.286;2022-07-10T07:28:28;4.65;;;1.92;;
40611;SDS011;26317;44.894;20.286;2022-07-10T07:31:05;2.67;;;1.98;;
40611;SDS011;26317;44.894;20.286;2022-07-10T07:33:46;4.32;;;2.08;;
40611;SDS011;26317;44.894;20.286;2022-07-10T07:36:22;2.38;;;2.08;;
40611;SDS011;26317;44.894;20.286;2022-07-10T07:39:00;2.63;;;2.00;;
40611;SDS011;26317;44.894;20.286;2022-07-10T07:41:38;4.88;;;1.98;;
40611;SDS011;26317;44.894;20.286;2022-07-10T07:44:15;3.55;;;1.88;;
40611;SDS011;26317;44.894;20.286;2022-07-10T07:46:52;2.90;;;2.00;;
40611;SDS011;26317;44.894;20.286;2022-07-10T07:49:24;3.30;;;1.90;;
40611;SDS011;26317;44.894;20.286;2022-07-10T07:51:56;3.28;;;1.70;;
40611;SDS011;26317;44.894;20.286;2022-07-10T07:54:41;2.83;;;1.83;;
40611;SDS011;26317;44.894;20.286;2022-07-10T07:57:14;6.00;;;1.90;;
40611;SDS011;26317;44.894;20.286;2022-07-10T07:59:54;2.03;;;1.92;;
40611;SDS011;26317;44.894;20.286;2022-07-10T08:02:41;2.15;;;1.40;;
40611;SDS011;26317;44.894;20.286;2022-07-10T08:05:17;1.40;;;1.30;;
40611;SDS011;26317;44.894;20.286;2022-07-10T08:08:13;2.17;;;1.98;;
40611;SDS011;26317;44.894;20.286;2022-07-10T08:10:59;2.08;;;1.48;;
40611;SDS011;26317;44.894;20.286;2022-07-10T08:13:34;8.15;;;1.90;;
40611;SDS011;26317;44.894;20.286;2022-07-10T08:16:14;4.93;;;1.95;;
40611;SDS011;26317;44.894;20.286;2022-07-10T08:18:51;2.75;;;1.80;;
40611;SDS011;26317;44.894;20.286;2022-07-10T08:21:22;2.65;;;1.55;;
40611;SDS011;26317;44.894;20.286;2022-07-10T08:23:59;5.88;;;1.88;;
40611;SDS011;26317;44.894;20.286;2022-07-10T08:26:45;6.57;;;4.82;;
40611;SDS011;26317;44.894;20.286;2022-07-10T08:29:24;4.53;;;1.70;;
40611;SDS011;26317;44.894;20.286;2022-07-10T08:31:53;6.80;;;2.08;;
40611;SDS011;26317;44.894;20.286;2022-07-10T08:34:26;2.72;;;1.83;;
40611;SDS011;26317;44.894;20.286;2022-07-10T08:39:24;3.15;;;1.77;;
40611;SDS011;26317;44.894;20.286;2022-07-10T08:41:56;2.85;;;1.80;;
40611;SDS011;26317;44.894;20.286;2022-07-10T08:44:27;2.15;;;1.63;;
40611;SDS011;26317;44.894;20.286;2022-07-10T08:46:58;3.25;;;1.50;;
40611;SDS011;26317;44.894;20.286;2022-07-10T08:49:30;1.65;;;1.25;;
40611;SDS011;26317;44.894;20.286;2022-07-10T08:52:03;6.25;;;2.35;;
40611;SDS011;26317;44.894;20.286;2022-07-10T08:54:42;5.43;;;1.77;;
40611;SDS011;26317;44.894;20.286;2022-07-10T08:57:27;2.60;;;1.33;;
40611;SDS011;26317;44.894;20.286;2022-07-10T09:00:02;6.78;;;1.08;;
40611;SDS011;26317;44.894;20.286;2022-07-10T09:02:40;5.82;;;1.45;;
40611;SDS011;26317;44.894;20.286;2022-07-10T09:05:15;2.35;;;1.35;;
40611;SDS011;26317;44.894;20.286;2022-07-10T09:07:47;1.33;;;1.17;;
40611;SDS011;26317;44.894;20.286;2022-07-10T09:10:19;3.42;;;1.83;;
40611;SDS011;26317;44.894;20.286;2022-07-10T09:13:00;1.33;;;1.20;;
40611;SDS011;26317;44.894;20.286;2022-07-10T09:15:31;3.88;;;1.08;;
40611;SDS011;26317;44.894;20.286;2022-07-10T09:18:02;1.58;;;1.10;;
40611;SDS011;26317;44.894;20.286;2022-07-10T09:20:41;1.52;;;1.40;;
40611;SDS011;26317;44.894;20.286;2022-07-10T09:23:15;2.03;;;1.00;;
40611;SDS011;26317;44.894;20.286;2022-07-10T09:25:46;1.10;;;0.95;;
40611;SDS011;26317;44.894;20.286;2022-07-10T09:31:11;5.55;;;4.03;;
40611;SDS011;26317;44.894;20.286;2022-07-10T09:33:40;2.28;;;1.30;;
40611;SDS011;26317;44.894;20.286;2022-07-10T09:36:09;10.90;;;5.85;;
40611;SDS011;26317;44.894;20.286;2022-07-10T09:38:52;4.65;;;1.92;;
40611;SDS011;26317;44.894;20.286;2022-07-10T09:41:26;2.60;;;2.22;;
40611;SDS011;26317;44.894;20.286;2022-07-10T09:43:56;1.85;;;1.65;;
40611;SDS011;26317;44.894;20.286;2022-07-10T09:46:30;5.28;;;2.38;;
40611;SDS011;26317;44.894;20.286;2022-07-10T09:49:01;1.85;;;1.40;;
40611;SDS011;26317;44.894;20.286;2022-07-10T09:51:32;7.10;;;1.30;;
40611;SDS011;26317;44.894;20.286;2022-07-10T09:54:02;4.87;;;2.20;;
40611;SDS011;26317;44.894;20.286;2022-07-10T09:56:41;5.05;;;4.20;;
40611;SDS011;26317;44.894;20.286;2022-07-10T09:59:12;3.30;;;2.07;;
40611;SDS011;26317;44.894;20.286;2022-07-10T10:01:45;4.70;;;2.10;;
40611;SDS011;26317;44.894;20.286;2022-07-10T10:04:16;5.38;;;1.80;;
40611;SDS011;26317;44.894;20.286;2022-07-10T10:06:50;2.60;;;1.45;;
40611;SDS011;26317;44.894;20.286;2022-07-10T10:09:21;5.95;;;5.30;;
40611;SDS011;26317;44.894;20.286;2022-07-10T10:11:55;5.28;;;2.58;;
40611;SDS011;26317;44.894;20.286;2022-07-10T10:14:28;2.60;;;2.08;;
40611;SDS011;26317;44.894;20.286;2022-07-10T10:17:00;4.65;;;1.65;;
40611;SDS011;26317;44.894;20.286;2022-07-10T10:19:32;3.17;;;1.77;;
40611;SDS011;26317;44.894;20.286;2022-07-10T10:22:15;2.15;;;1.70;;
40611;SDS011;26317;44.894;20.286;2022-07-10T10:24:46;1.85;;;1.52;;
40611;SDS011;26317;44.894;20.286;2022-07-10T10:27:17;2.20;;;1.23;;
40611;SDS011;26317;44.894;20.286;2022-07-10T10:29:47;7.07;;;1.87;;
40611;SDS011;26317;44.894;20.286;2022-07-10T10:32:19;5.43;;;1.80;;
40611;SDS011;26317;44.894;20.286;2022-07-10T10:34:49;3.38;;;1.40;;
40611;SDS011;26317;44.894;20.286;2022-07-10T10:37:34;2.53;;;1.30;;
40611;SDS011;26317;44.894;20.286;2022-07-10T10:40:07;1.42;;;1.00;;
40611;SDS011;26317;44.894;20.286;2022-07-10T10:42:37;1.75;;;0.95;;
40611;SDS011;26317;44.894;20.286;2022-07-10T10:48:05;1.83;;;1.00;;
40611;SDS011;26317;44.894;20.286;2022-07-10T10:50:41;4.88;;;1.00;;
40611;SDS011;26317;44.894;20.286;2022-07-10T10:53:14;4.18;;;1.08;;
40611;SDS011;26317;44.894;20.286;2022-07-10T10:58:43;1.95;;;0.70;;
40611;SDS011;26317;44.894;20.286;2022-07-10T11:01:23;5.55;;;1.25;;
40611;SDS011;26317;44.894;20.286;2022-07-10T11:06:47;2.55;;;1.00;;
40611;SDS011;26317;44.894;20.286;2022-07-10T11:09:21;4.35;;;2.85;;
40611;SDS011;26317;44.894;20.286;2022-07-10T11:11:57;4.10;;;1.23;;
40611;SDS011;26317;44.894;20.286;2022-07-10T11:14:30;1.98;;;0.93;;
40611;SDS011;26317;44.894;20.286;2022-07-10T11:17:01;1.70;;;0.70;;
40611;SDS011;26317;44.894;20.286;2022-07-10T11:19:34;2.80;;;1.33;;
40611;SDS011;26317;44.894;20.286;2022-07-10T11:25:03;3.38;;;1.00;;
40611;SDS011;26317;44.894;20.286;2022-07-10T11:27:49;2.47;;;0.88;;
40611;SDS011;26317;44.894;20.286;2022-07-10T11:30:27;1.85;;;1.60;;
40611;SDS011;26317;44.894;20.286;2022-07-10T11:33:02;2.95;;;1.25;;
40611;SDS011;26317;44.894;20.286;2022-07-10T11:35:35;2.70;;;1.30;;
40611;SDS011;26317;44.894;20.286;2022-07-10T11:38:04;3.75;;;1.92;;
40611;SDS011;26317;44.894;20.286;2022-07-10T11:40:35;2.20;;;1.10;;
40611;SDS011;26317;44.894;20.286;2022-07-10T11:43:07;1.80;;;1.50;;
40611;SDS011;26317;44.894;20.286;2022-07-10T11:45:42;3.55;;;1.20;;
40611;SDS011;26317;44.894;20.286;2022-07-10T11:48:17;1.20;;;1.00;;
40611;SDS011;26317;44.894;20.286;2022-07-10T11:50:49;4.45;;;2.17;;
40611;SDS011;26317;44.894;20.286;2022-07-10T11:53:22;1.50;;;1.00;;
40611;SDS011;26317;44.894;20.286;2022-07-10T11:55:51;3.22;;;1.65;;
40611;SDS011;26317;44.894;20.286;2022-07-10T11:58:20;4.35;;;1.98;;
40611;SDS011;26317;44.894;20.286;2022-07-10T12:00:56;3.75;;;1.70;;
40611;SDS011;26317;44.894;20.286;2022-07-10T12:03:27;4.32;;;3.13;;
40611;SDS011;26317;44.894;20.286;2022-07-10T12:06:03;2.00;;;1.38;;
40611;SDS011;26317;44.894;20.286;2022-07-10T12:08:43;4.65;;;1.40;;
40611;SDS011;26317;44.894;20.286;2022-07-10T12:11:13;3.00;;;1.70;;
40611;SDS011;26317;44.894;20.286;2022-07-10T12:13:47;4.07;;;1.40;;
40611;SDS011;26317;44.894;20.286;2022-07-10T12:16:19;3.50;;;1.30;;
40611;SDS011;26317;44.894;20.286;2022-07-10T12:18:48;3.53;;;1.20;;
40611;SDS011;26317;44.894;20.286;2022-07-10T12:21:20;2.95;;;2.17;;
40611;SDS011;26317;44.894;20.286;2022-07-10T12:23:48;1.10;;;1.00;;
40611;SDS011;26317;44.894;20.286;2022-07-10T12:26:17;4.32;;;1.77;;
40611;SDS011;26317;44.894;20.286;2022-07-10T12:28:51;3.03;;;1.70;;
40611;SDS011;26317;44.894;20.286;2022-07-10T12:31:21;2.38;;;1.10;;
40611;SDS011;26317;44.894;20.286;2022-07-10T12:33:56;2.45;;;1.50;;
40611;SDS011;26317;44.894;20.286;2022-07-10T12:39:16;1.90;;;1.65;;
40611;SDS011;26317;44.894;20.286;2022-07-10T12:41:53;2.00;;;1.40;;
40611;SDS011;26317;44.894;20.286;2022-07-10T12:44:36;1.05;;;0.88;;
40611;SDS011;26317;44.894;20.286;2022-07-10T12:47:07;5.95;;;1.23;;
40611;SDS011;26317;44.894;20.286;2022-07-10T12:49:50;3.53;;;0.85;;
40611;SDS011;26317;44.894;20.286;2022-07-10T12:52:24;1.35;;;0.93;;
40611;SDS011;26317;44.894;20.286;2022-07-10T12:55:07;0.88;;;0.82;;
40611;SDS011;26317;44.894;20.286;2022-07-10T12:57:49;1.63;;;1.00;;
40611;SDS011;26317;44.894;20.286;2022-07-10T13:00:20;2.23;;;1.00;;
40611;SDS011;26317;44.894;20.286;2022-07-10T13:02:56;1.17;;;1.08;;
40611;SDS011;26317;44.894;20.286;2022-07-10T13:05:30;4.55;;;1.58;;
40611;SDS011;26317;44.894;20.286;2022-07-10T13:08:06;1.48;;;1.38;;
40611;SDS011;26317;44.894;20.286;2022-07-10T13:10:38;2.17;;;1.00;;
40611;SDS011;26317;44.894;20.286;2022-07-10T13:13:07;1.67;;;1.00;;
40611;SDS011;26317;44.894;20.286;2022-07-10T13:15:36;2.67;;;1.40;;
40611;SDS011;26317;44.894;20.286;2022-07-10T13:18:12;3.63;;;1.35;;
40611;SDS011;26317;44.894;20.286;2022-07-10T13:20:43;2.30;;;1.35;;
40611;SDS011;26317;44.894;20.286;2022-07-10T13:23:15;2.97;;;1.38;;
40611;SDS011;26317;44.894;20.286;2022-07-10T13:25:47;4.97;;;1.65;;
40611;SDS011;26317;44.894;20.286;2022-07-10T13:28:16;2.30;;;1.37;;
40611;SDS011;26317;44.894;20.286;2022-07-10T13:30:45;6.45;;;1.75;;
40611;SDS011;26317;44.894;20.286;2022-07-10T13:33:15;6.20;;;1.25;;
40611;SDS011;26317;44.894;20.286;2022-07-10T13:35:44;1.40;;;1.25;;
40611;SDS011;26317;44.894;20.286;2022-07-10T13:38:16;2.58;;;1.42;;
40611;SDS011;26317;44.894;20.286;2022-07-10T13:40:45;4.90;;;1.10;;
40611;SDS011;26317;44.894;20.286;2022-07-10T13:43:15;1.58;;;1.08;;
40611;SDS011;26317;44.894;20.286;2022-07-10T13:48:15;2.72;;;1.35;;
40611;SDS011;26317;44.894;20.286;2022-07-10T13:50:44;2.60;;;1.02;;
40611;SDS011;26317;44.894;20.286;2022-07-10T13:53:17;2.78;;;1.20;;
40611;SDS011;26317;44.894;20.286;2022-07-10T13:55:47;1.83;;;1.20;;
40611;SDS011;26317;44.894;20.286;2022-07-10T13:58:16;5.93;;;1.77;;
40611;SDS011;26317;44.894;20.286;2022-07-10T14:00:45;1.67;;;1.15;;
40611;SDS011;26317;44.894;20.286;2022-07-10T14:03:14;4.22;;;1.42;;
40611;SDS011;26317;44.894;20.286;2022-07-10T14:05:44;4.88;;;1.13;;
40611;SDS011;26317;44.894;20.286;2022-07-10T14:08:12;1.67;;;1.08;;
40611;SDS011;26317;44.894;20.286;2022-07-10T14:10:44;3.08;;;1.35;;
40611;SDS011;26317;44.894;20.286;2022-07-10T14:13:13;1.30;;;1.15;;
40611;SDS011;26317;44.894;20.286;2022-07-10T14:15:42;2.33;;;1.20;;
40611;SDS011;26317;44.894;20.286;2022-07-10T14:18:13;2.08;;;1.23;;
40611;SDS011;26317;44.894;20.286;2022-07-10T14:21:00;2.20;;;0.98;;
40611;SDS011;26317;44.894;20.286;2022-07-10T14:23:34;1.63;;;1.00;;
40611;SDS011;26317;44.894;20.286;2022-07-10T14:26:09;1.13;;;0.88;;
40611;SDS011;26317;44.894;20.286;2022-07-10T14:28:38;1.25;;;0.80;;
40611;SDS011;26317;44.894;20.286;2022-07-10T14:31:08;2.15;;;1.20;;
40611;SDS011;26317;44.894;20.286;2022-07-10T14:33:37;5.32;;;1.08;;
40611;SDS011;26317;44.894;20.286;2022-07-10T14:36:06;7.75;;;1.25;;
40611;SDS011;26317;44.894;20.286;2022-07-10T14:38:35;3.78;;;1.17;;
40611;SDS011;26317;44.894;20.286;2022-07-10T14:41:04;3.45;;;1.02;;
40611;SDS011;26317;44.894;20.286;2022-07-10T14:43:36;4.90;;;1.00;;
40611;SDS011;26317;44.894;20.286;2022-07-10T14:46:05;1.98;;;1.30;;
40611;SDS011;26317;44.894;20.286;2022-07-10T14:48:34;4.50;;;1.30;;
40611;SDS011;26317;44.894;20.286;2022-07-10T14:51:03;0.85;;;0.80;;
40611;SDS011;26317;44.894;20.286;2022-07-10T14:53:32;1.90;;;0.82;;
40611;SDS011;26317;44.894;20.286;2022-07-10T14:58:33;1.30;;;1.20;;
40611;SDS011;26317;44.894;20.286;2022-07-10T15:01:04;4.22;;;0.80;;
40611;SDS011;26317;44.894;20.286;2022-07-10T15:03:33;1.52;;;1.10;;
40611;SDS011;26317;44.894;20.286;2022-07-10T15:06:02;4.05;;;1.38;;
40611;SDS011;26317;44.894;20.286;2022-07-10T15:08:32;4.80;;;1.35;;
40611;SDS011;26317;44.894;20.286;2022-07-10T15:11:01;2.97;;;1.13;;
40611;SDS011;26317;44.894;20.286;2022-07-10T15:13:32;1.10;;;1.00;;
40611;SDS011;26317;44.894;20.286;2022-07-10T15:16:04;1.02;;;0.90;;
40611;SDS011;26317;44.894;20.286;2022-07-10T15:18:34;2.15;;;0.80;;
40611;SDS011;26317;44.894;20.286;2022-07-10T15:21:03;1.30;;;1.10;;
40611;SDS011;26317;44.894;20.286;2022-07-10T15:23:32;4.00;;;2.13;;
40611;SDS011;26317;44.894;20.286;2022-07-10T15:26:01;3.92;;;2.17;;
40611;SDS011;26317;44.894;20.286;2022-07-10T15:28:31;3.63;;;2.03;;
40611;SDS011;26317;44.894;20.286;2022-07-10T15:31:00;3.17;;;1.45;;
40611;SDS011;26317;44.894;20.286;2022-07-10T15:36:03;1.70;;;1.13;;
40611;SDS011;26317;44.894;20.286;2022-07-10T15:38:32;1.90;;;1.10;;
40611;SDS011;26317;44.894;20.286;2022-07-10T15:41:02;8.48;;;1.25;;
40611;SDS011;26317;44.894;20.286;2022-07-10T15:43:31;5.35;;;1.10;;
40611;SDS011;26317;44.894;20.286;2022-07-10T15:46:00;3.50;;;1.35;;
40611;SDS011;26317;44.894;20.286;2022-07-10T15:48:29;2.60;;;0.70;;
40611;SDS011;26317;44.894;20.286;2022-07-10T15:51:00;2.97;;;1.20;;
40611;SDS011;26317;44.894;20.286;2022-07-10T15:53:29;1.85;;;0.70;;
40611;SDS011;26317;44.894;20.286;2022-07-10T15:55:58;3.17;;;0.88;;